sensor_id;sensor_type;location;lat;lon;timestamp;pressure;altitude;pressure_sealevel;temperature;humidity
35778;BME280;21899;42.662;23.316;2023-02-12T00:00:32;95341.09;;;0.94;42.75
35778;BME280;21899;42.662;23.316;2023-02-12T00:02:58;95335.50;;;0.95;43.07
35778;BME280;21899;42.662;23.316;2023-02-12T00:05:23;95343.22;;;0.92;43.25
35778;BME280;21899;42.662;23.316;2023-02-12T00:07:49;95333.91;;;0.86;43.76
35778;BME280;21899;42.662;23.316;2023-02-12T00:10:14;95335.09;;;0.80;43.67
35778;BME280;21899;42.662;23.316;2023-02-12T00:12:39;95339.63;;;0.88;43.40
35778;BME280;21899;42.662;23.316;2023-02-12T00:15:05;95346.97;;;0.91;42.39
35778;BME280;21899;42.662;23.316;2023-02-12T00:17:31;95348.31;;;0.88;42.64
35778;BME280;21899;42.662;23.316;2023-02-12T00:19:56;95344.16;;;0.87;42.56
35778;BME280;21899;42.662;23.316;2023-02-12T00:22:21;95352.63;;;0.84;42.65
35778;BME280;21899;42.662;23.316;2023-02-12T00:24:47;95337.53;;;0.76;42.95
35778;BME280;21899;42.662;23.316;2023-02-12T00:27:12;95348.13;;;0.85;43.02
35778;BME280;21899;42.662;23.316;2023-02-12T00:29:38;95333.94;;;0.72;43.06
35778;BME280;21899;42.662;23.316;2023-02-12T00:32:03;95343.16;;;0.83;42.93
35778;BME280;21899;42.662;23.316;2023-02-12T00:34:28;95340.72;;;0.87;42.80
35778;BME280;21899;42.662;23.316;2023-02-12T00:36:54;95338.69;;;0.84;43.09
35778;BME280;21899;42.662;23.316;2023-02-12T00:39:19;95330.97;;;0.87;43.25
35778;BME280;21899;42.662;23.316;2023-02-12T00:41:44;95315.16;;;0.87;43.08
35778;BME280;21899;42.662;23.316;2023-02-12T00:44:10;95311.06;;;0.81;43.41
35778;BME280;21899;42.662;23.316;2023-02-12T00:46:35;95302.53;;;0.76;43.51
35778;BME280;21899;42.662;23.316;2023-02-12T00:49:01;95298.19;;;0.80;43.28
35778;BME280;21899;42.662;23.316;2023-02-12T00:51:26;95296.03;;;0.82;43.28
35778;BME280;21899;42.662;23.316;2023-02-12T00:53:51;95286.09;;;0.79;42.65
35778;BME280;21899;42.662;23.316;2023-02-12T00:56:17;95300.53;;;0.81;42.42
35778;BME280;21899;42.662;23.316;2023-02-12T00:58:42;95297.59;;;0.83;42.89
35778;BME280;21899;42.662;23.316;2023-02-12T01:01:08;95298.38;;;0.83;42.52
35778;BME280;21899;42.662;23.316;2023-02-12T01:03:33;95303.22;;;0.90;42.93
35778;BME280;21899;42.662;23.316;2023-02-12T01:05:59;95288.00;;;0.87;43.17
35778;BME280;21899;42.662;23.316;2023-02-12T01:08:24;95297.16;;;0.89;42.87
35778;BME280;21899;42.662;23.316;2023-02-12T01:10:59;95285.69;;;0.85;42.83
35778;BME280;21899;42.662;23.316;2023-02-12T01:13:25;95279.81;;;0.88;42.28
35778;BME280;21899;42.662;23.316;2023-02-12T01:18:33;95308.06;;;0.96;43.16
35778;BME280;21899;42.662;23.316;2023-02-12T01:20:59;95302.00;;;0.96;43.30
35778;BME280;21899;42.662;23.316;2023-02-12T01:23:26;95299.84;;;0.98;43.44
35778;BME280;21899;42.662;23.316;2023-02-12T01:25:51;95302.38;;;1.03;43.33
35778;BME280;21899;42.662;23.316;2023-02-12T01:28:17;95311.84;;;1.04;43.42
35778;BME280;21899;42.662;23.316;2023-02-12T01:30:43;95318.34;;;1.06;43.39
35778;BME280;21899;42.662;23.316;2023-02-12T01:33:08;95314.06;;;1.10;43.32
35778;BME280;21899;42.662;23.316;2023-02-12T01:35:33;95312.31;;;1.06;43.43
35778;BME280;21899;42.662;23.316;2023-02-12T01:38:01;95316.03;;;1.05;43.73
35778;BME280;21899;42.662;23.316;2023-02-12T01:40:26;95314.94;;;1.06;43.96
35778;BME280;21899;42.662;23.316;2023-02-12T01:42:52;95289.91;;;0.95;44.41
35778;BME280;21899;42.662;23.316;2023-02-12T01:45:41;95291.63;;;0.99;44.52
35778;BME280;21899;42.662;23.316;2023-02-12T01:48:08;95301.44;;;0.99;44.48
35778;BME280;21899;42.662;23.316;2023-02-12T01:50:33;95295.78;;;0.92;44.26
35778;BME280;21899;42.662;23.316;2023-02-12T01:52:58;95288.00;;;0.87;44.79
35778;BME280;21899;42.662;23.316;2023-02-12T01:55:24;95281.94;;;0.86;44.26
35778;BME280;21899;42.662;23.316;2023-02-12T01:57:50;95277.28;;;0.83;45.03
35778;BME280;21899;42.662;23.316;2023-02-12T02:00:19;95281.19;;;0.86;44.76
35778;BME280;21899;42.662;23.316;2023-02-12T02:02:49;95283.66;;;0.82;45.61
35778;BME280;21899;42.662;23.316;2023-02-12T02:05:23;95274.66;;;0.83;45.10
35778;BME280;21899;42.662;23.316;2023-02-12T02:07:51;95277.13;;;0.80;45.72
35778;BME280;21899;42.662;23.316;2023-02-12T02:10:17;95282.19;;;0.76;45.48
35778;BME280;21899;42.662;23.316;2023-02-12T02:12:43;95268.56;;;0.74;45.51
35778;BME280;21899;42.662;23.316;2023-02-12T02:15:29;95284.06;;;0.76;46.19
35778;BME280;21899;42.662;23.316;2023-02-12T02:18:19;95280.28;;;0.68;45.94
35778;BME280;21899;42.662;23.316;2023-02-12T02:29:03;95279.88;;;0.75;46.17
35778;BME280;21899;42.662;23.316;2023-02-12T02:31:46;95278.94;;;0.71;46.95
35778;BME280;21899;42.662;23.316;2023-02-12T02:37:03;95279.16;;;0.61;46.95
35778;BME280;21899;42.662;23.316;2023-02-12T02:39:52;95266.47;;;0.63;46.94
35778;BME280;21899;42.662;23.316;2023-02-12T02:43:22;95271.47;;;0.73;47.45
35778;BME280;21899;42.662;23.316;2023-02-12T02:45:33;95273.41;;;0.81;47.68
35778;BME280;21899;42.662;23.316;2023-02-12T02:48:08;95273.00;;;0.87;47.21
35778;BME280;21899;42.662;23.316;2023-02-12T02:50:39;95266.75;;;0.83;47.61
35778;BME280;21899;42.662;23.316;2023-02-12T02:53:18;95276.38;;;0.88;48.11
35778;BME280;21899;42.662;23.316;2023-02-12T02:55:50;95259.31;;;0.85;48.56
35778;BME280;21899;42.662;23.316;2023-02-12T02:58:20;95275.00;;;0.90;48.38
35778;BME280;21899;42.662;23.316;2023-02-12T03:00:56;95281.53;;;0.93;48.71
35778;BME280;21899;42.662;23.316;2023-02-12T03:03:29;95283.09;;;0.94;48.67
35778;BME280;21899;42.662;23.316;2023-02-12T03:06:21;95283.09;;;0.94;48.61
35778;BME280;21899;42.662;23.316;2023-02-12T03:08:57;95282.50;;;0.97;49.06
35778;BME280;21899;42.662;23.316;2023-02-12T03:11:30;95288.38;;;0.94;49.18
35778;BME280;21899;42.662;23.316;2023-02-12T03:14:18;95279.56;;;0.98;49.12
35778;BME280;21899;42.662;23.316;2023-02-12T03:16:53;95280.53;;;1.02;48.70
35778;BME280;21899;42.662;23.316;2023-02-12T03:19:30;95276.00;;;1.03;48.78
35778;BME280;21899;42.662;23.316;2023-02-12T03:22:06;95291.22;;;1.06;48.94
35778;BME280;21899;42.662;23.316;2023-02-12T03:24:39;95278.16;;;1.01;48.95
35778;BME280;21899;42.662;23.316;2023-02-12T03:27:16;95265.59;;;0.98;49.69
35778;BME280;21899;42.662;23.316;2023-02-12T03:29:44;95278.16;;;1.01;49.76
35778;BME280;21899;42.662;23.316;2023-02-12T03:32:29;95266.97;;;0.95;50.10
35778;BME280;21899;42.662;23.316;2023-02-12T03:35:41;95265.38;;;0.86;49.93
35778;BME280;21899;42.662;23.316;2023-02-12T03:40:58;95267.66;;;0.79;50.29
35778;BME280;21899;42.662;23.316;2023-02-12T03:43:42;95261.78;;;0.82;50.30
35778;BME280;21899;42.662;23.316;2023-02-12T03:46:46;95279.50;;;0.90;50.49
35778;BME280;21899;42.662;23.316;2023-02-12T03:51:46;95274.28;;;0.98;50.60
35778;BME280;21899;42.662;23.316;2023-02-12T03:54:15;95274.94;;;1.04;50.52
35778;BME280;21899;42.662;23.316;2023-02-12T03:56:47;95281.28;;;1.03;50.53
35778;BME280;21899;42.662;23.316;2023-02-12T03:59:20;95280.53;;;1.02;50.41
35778;BME280;21899;42.662;23.316;2023-02-12T04:01:47;95282.50;;;0.97;50.35
35778;BME280;21899;42.662;23.316;2023-02-12T04:04:14;95282.31;;;0.93;50.29
35778;BME280;21899;42.662;23.316;2023-02-12T04:06:40;95267.28;;;0.94;50.96
35778;BME280;21899;42.662;23.316;2023-02-12T04:09:08;95274.84;;;0.87;51.13
35778;BME280;21899;42.662;23.316;2023-02-12T04:14:54;95272.75;;;0.75;52.19
35778;BME280;21899;42.662;23.316;2023-02-12T04:30:49;95275.41;;;0.18;55.07
35778;BME280;21899;42.662;23.316;2023-02-12T04:33:22;95286.31;;;0.25;54.61
35778;BME280;21899;42.662;23.316;2023-02-12T04:35:55;95293.13;;;0.26;54.46
35778;BME280;21899;42.662;23.316;2023-02-12T04:38:33;95284.09;;;0.18;55.43
35778;BME280;21899;42.662;23.316;2023-02-12T04:41:04;95297.31;;;0.27;54.54
35778;BME280;21899;42.662;23.316;2023-02-12T04:43:32;95283.63;;;0.16;55.07
35778;BME280;21899;42.662;23.316;2023-02-12T04:46:02;95296.84;;;0.25;55.06
35778;BME280;21899;42.662;23.316;2023-02-12T04:48:28;95300.25;;;0.25;55.01
35778;BME280;21899;42.662;23.316;2023-02-12T04:50:54;95312.81;;;0.28;55.34
35778;BME280;21899;42.662;23.316;2023-02-12T04:53:19;95320.25;;;0.26;55.06
35778;BME280;21899;42.662;23.316;2023-02-12T04:55:44;95309.53;;;0.23;55.24
35778;BME280;21899;42.662;23.316;2023-02-12T04:58:11;95317.13;;;0.24;55.11
35778;BME280;21899;42.662;23.316;2023-02-12T05:00:36;95307.38;;;0.25;55.46
35778;BME280;21899;42.662;23.316;2023-02-12T05:03:02;95302.53;;;0.18;54.98
35778;BME280;21899;42.662;23.316;2023-02-12T05:05:27;95311.06;;;0.24;55.39
35778;BME280;21899;42.662;23.316;2023-02-12T05:07:53;95322.47;;;0.33;55.27
35778;BME280;21899;42.662;23.316;2023-02-12T05:10:18;95313.97;;;0.36;55.33
35778;BME280;21899;42.662;23.316;2023-02-12T05:12:44;95310.44;;;0.40;55.38
35778;BME280;21899;42.662;23.316;2023-02-12T05:15:09;95311.59;;;0.48;55.05
35778;BME280;21899;42.662;23.316;2023-02-12T05:17:35;95318.31;;;0.54;54.31
35778;BME280;21899;42.662;23.316;2023-02-12T05:20:00;95322.38;;;0.60;53.78
35778;BME280;21899;42.662;23.316;2023-02-12T05:22:26;95325.97;;;0.64;53.71
35778;BME280;21899;42.662;23.316;2023-02-12T05:24:51;95326.28;;;0.62;55.42
35778;BME280;21899;42.662;23.316;2023-02-12T05:27:16;95318.38;;;0.62;55.36
35778;BME280;21899;42.662;23.316;2023-02-12T05:29:42;95339.41;;;0.76;54.98
35778;BME280;21899;42.662;23.316;2023-02-12T05:32:08;95338.31;;;0.77;54.69
35778;BME280;21899;42.662;23.316;2023-02-12T05:34:33;95350.13;;;0.79;55.25
35778;BME280;21899;42.662;23.316;2023-02-12T05:36:59;95338.63;;;0.75;56.18
35778;BME280;21899;42.662;23.316;2023-02-12T05:39:24;95334.56;;;0.69;57.06
35778;BME280;21899;42.662;23.316;2023-02-12T05:41:50;95351.31;;;0.73;57.28
35778;BME280;21899;42.662;23.316;2023-02-12T05:44:15;95349.94;;;0.76;57.68
35778;BME280;21899;42.662;23.316;2023-02-12T05:46:41;95345.09;;;0.69;58.30
35778;BME280;21899;42.662;23.316;2023-02-12T05:49:08;95364.00;;;0.71;60.22
35778;BME280;21899;42.662;23.316;2023-02-12T05:51:34;95350.50;;;0.51;61.89
35778;BME280;21899;42.662;23.316;2023-02-12T05:54:01;95348.00;;;0.46;62.35
35778;BME280;21899;42.662;23.316;2023-02-12T05:56:35;95341.16;;;0.45;62.99
35778;BME280;21899;42.662;23.316;2023-02-12T05:59:04;95351.75;;;0.53;63.26
35778;BME280;21899;42.662;23.316;2023-02-12T06:01:33;95347.59;;;0.52;63.03
35778;BME280;21899;42.662;23.316;2023-02-12T06:04:00;95357.53;;;0.55;64.51
35778;BME280;21899;42.662;23.316;2023-02-12T06:06:27;95350.50;;;0.51;64.74
35778;BME280;21899;42.662;23.316;2023-02-12T06:08:52;95360.63;;;0.57;65.59
35778;BME280;21899;42.662;23.316;2023-02-12T06:11:18;95361.69;;;0.56;66.42
35778;BME280;21899;42.662;23.316;2023-02-12T06:13:45;95351.56;;;0.50;67.95
35778;BME280;21899;42.662;23.316;2023-02-12T06:16:18;95354.81;;;0.47;69.27
35778;BME280;21899;42.662;23.316;2023-02-12T06:18:43;95360.44;;;0.54;70.06
35778;BME280;21899;42.662;23.316;2023-02-12T06:21:09;95363.09;;;0.54;70.50
35778;BME280;21899;42.662;23.316;2023-02-12T06:23:34;95370.56;;;0.60;70.80
35778;BME280;21899;42.662;23.316;2023-02-12T06:26:00;95367.94;;;0.60;71.98
35778;BME280;21899;42.662;23.316;2023-02-12T06:28:25;95355.97;;;0.54;72.06
35778;BME280;21899;42.662;23.316;2023-02-12T06:30:50;95359.66;;;0.53;74.35
35778;BME280;21899;42.662;23.316;2023-02-12T06:33:16;95369.34;;;0.58;75.78
35778;BME280;21899;42.662;23.316;2023-02-12T06:35:41;95376.53;;;0.66;76.20
35778;BME280;21899;42.662;23.316;2023-02-12T06:38:07;95368.63;;;0.66;77.81
35778;BME280;21899;42.662;23.316;2023-02-12T06:40:33;95371.06;;;0.62;78.57
35778;BME280;21899;42.662;23.316;2023-02-12T06:42:58;95384.88;;;0.68;78.80
35778;BME280;21899;42.662;23.316;2023-02-12T06:45:24;95387.91;;;0.75;78.35
35778;BME280;21899;42.662;23.316;2023-02-12T06:47:50;95381.69;;;0.71;79.25
35778;BME280;21899;42.662;23.316;2023-02-12T06:50:16;95386.47;;;0.69;79.66
35778;BME280;21899;42.662;23.316;2023-02-12T06:52:41;95370.56;;;0.60;79.78
35778;BME280;21899;42.662;23.316;2023-02-12T06:55:06;95384.88;;;0.68;79.73
35778;BME280;21899;42.662;23.316;2023-02-12T06:57:32;95376.22;;;0.67;79.93
35778;BME280;21899;42.662;23.316;2023-02-12T06:59:57;95382.84;;;0.65;79.83
35778;BME280;21899;42.662;23.316;2023-02-12T07:02:23;95384.34;;;0.57;79.72
35778;BME280;21899;42.662;23.316;2023-02-12T07:04:48;95391.16;;;0.58;80.41
35778;BME280;21899;42.662;23.316;2023-02-12T07:07:13;95383.44;;;0.62;79.92
35778;BME280;21899;42.662;23.316;2023-02-12T07:09:39;95385.28;;;0.61;79.88
35778;BME280;21899;42.662;23.316;2023-02-12T07:12:05;95384.13;;;0.67;79.32
35778;BME280;21899;42.662;23.316;2023-02-12T07:14:31;95380.09;;;0.70;79.54
35778;BME280;21899;42.662;23.316;2023-02-12T07:16:56;95378.81;;;0.81;79.05
35778;BME280;21899;42.662;23.316;2023-02-12T07:19:23;95382.94;;;0.73;78.96
35778;BME280;21899;42.662;23.316;2023-02-12T07:21:48;95376.09;;;0.72;78.83
35778;BME280;21899;42.662;23.316;2023-02-12T07:24:14;95387.97;;;0.83;78.42
35778;BME280;21899;42.662;23.316;2023-02-12T07:26:42;95387.97;;;0.83;78.03
35778;BME280;21899;42.662;23.316;2023-02-12T07:29:07;95382.50;;;0.80;78.30
35778;BME280;21899;42.662;23.316;2023-02-12T07:31:33;95389.25;;;0.86;78.38
35778;BME280;21899;42.662;23.316;2023-02-12T07:33:59;95371.03;;;0.76;78.50
35778;BME280;21899;42.662;23.316;2023-02-12T07:36:28;95388.69;;;0.75;78.40
35778;BME280;21899;42.662;23.316;2023-02-12T07:38:54;95394.44;;;0.77;79.00
35778;BME280;21899;42.662;23.316;2023-02-12T07:41:26;95405.19;;;0.67;79.39
35778;BME280;21899;42.662;23.316;2023-02-12T07:43:55;95419.50;;;0.53;80.33
35778;BME280;21899;42.662;23.316;2023-02-12T07:46:23;95407.38;;;0.52;81.33
35778;BME280;21899;42.662;23.316;2023-02-12T07:48:50;95410.13;;;0.47;82.22
35778;BME280;21899;42.662;23.316;2023-02-12T07:51:17;95406.03;;;0.41;82.79
35778;BME280;21899;42.662;23.316;2023-02-12T07:53:46;95413.56;;;0.34;84.03
35778;BME280;21899;42.662;23.316;2023-02-12T07:56:21;95403.63;;;0.17;84.74
35778;BME280;21899;42.662;23.316;2023-02-12T07:58:48;95414.84;;;0.23;84.82
35778;BME280;21899;42.662;23.316;2023-02-12T08:01:20;95414.16;;;0.17;85.34
35778;BME280;21899;42.662;23.316;2023-02-12T08:03:47;95418.16;;;0.15;86.45
35778;BME280;21899;42.662;23.316;2023-02-12T08:06:24;95414.44;;;0.16;86.48
35778;BME280;21899;42.662;23.316;2023-02-12T08:08:52;95417.38;;;0.28;86.54
35778;BME280;21899;42.662;23.316;2023-02-12T08:11:18;95413.84;;;0.32;86.32
35778;BME280;21899;42.662;23.316;2023-02-12T08:13:43;95417.66;;;0.40;85.97
35778;BME280;21899;42.662;23.316;2023-02-12T08:16:12;95417.91;;;0.52;85.67
35778;BME280;21899;42.662;23.316;2023-02-12T08:18:38;95424.75;;;0.53;85.39
35778;BME280;21899;42.662;23.316;2023-02-12T08:21:05;95416.34;;;0.64;84.89
35778;BME280;21899;42.662;23.316;2023-02-12T08:23:33;95415.03;;;0.75;84.45
35778;BME280;21899;42.662;23.316;2023-02-12T08:26:14;95425.06;;;0.87;83.99
35778;BME280;21899;42.662;23.316;2023-02-12T08:28:42;95429.09;;;1.06;82.97
35778;BME280;21899;42.662;23.316;2023-02-12T08:31:14;95436.56;;;1.13;82.13
35778;BME280;21899;42.662;23.316;2023-02-12T08:33:41;95438.16;;;1.14;81.99
35778;BME280;21899;42.662;23.316;2023-02-12T08:36:11;95437.47;;;1.08;82.22
35778;BME280;21899;42.662;23.316;2023-02-12T08:38:38;95447.34;;;1.03;82.85
35778;BME280;21899;42.662;23.316;2023-02-12T08:41:05;95449.56;;;1.09;82.80
35778;BME280;21899;42.662;23.316;2023-02-12T08:43:32;95442.06;;;1.03;82.73
35778;BME280;21899;42.662;23.316;2023-02-12T08:46:05;95442.88;;;1.03;82.74
35778;BME280;21899;42.662;23.316;2023-02-12T08:48:31;95451.25;;;1.05;82.81
35778;BME280;21899;42.662;23.316;2023-02-12T08:51:11;95454.09;;;1.09;82.95
35778;BME280;21899;42.662;23.316;2023-02-12T08:53:38;95460.78;;;1.15;83.06
35778;BME280;21899;42.662;23.316;2023-02-12T08:56:05;95449.47;;;1.14;82.69
35778;BME280;21899;42.662;23.316;2023-02-12T08:58:31;95459.28;;;1.22;82.53
35778;BME280;21899;42.662;23.316;2023-02-12T09:00:56;95452.53;;;1.30;82.97
35778;BME280;21899;42.662;23.316;2023-02-12T09:03:22;95454.94;;;1.40;81.71
35778;BME280;21899;42.662;23.316;2023-02-12T09:05:47;95465.44;;;1.54;81.42
35778;BME280;21899;42.662;23.316;2023-02-12T09:08:13;95476.13;;;1.57;80.99
35778;BME280;21899;42.662;23.316;2023-02-12T09:10:42;95467.50;;;1.65;80.59
35778;BME280;21899;42.662;23.316;2023-02-12T09:13:09;95464.03;;;1.56;80.34
35778;BME280;21899;42.662;23.316;2023-02-12T09:15:41;95478.66;;;1.62;81.04
35778;BME280;21899;42.662;23.316;2023-02-12T09:18:06;95473.38;;;1.62;80.40
35778;BME280;21899;42.662;23.316;2023-02-12T09:20:32;95481.34;;;1.71;80.61
35778;BME280;21899;42.662;23.316;2023-02-12T09:22:58;95475.94;;;1.76;80.24
35778;BME280;21899;42.662;23.316;2023-02-12T09:25:24;95479.59;;;1.88;79.69
35778;BME280;21899;42.662;23.316;2023-02-12T09:27:49;95475.63;;;1.77;79.63
35778;BME280;21899;42.662;23.316;2023-02-12T09:30:15;95478.94;;;1.83;80.00
35778;BME280;21899;42.662;23.316;2023-02-12T09:32:40;95481.16;;;1.89;79.92
35778;BME280;21899;42.662;23.316;2023-02-12T09:35:06;95476.09;;;2.01;79.35
35778;BME280;21899;42.662;23.316;2023-02-12T09:37:31;95478.25;;;1.99;79.40
35778;BME280;21899;42.662;23.316;2023-02-12T09:39:57;95485.56;;;2.02;78.89
35778;BME280;21899;42.662;23.316;2023-02-12T09:42:30;95487.91;;;2.04;78.78
35778;BME280;21899;42.662;23.316;2023-02-12T09:52:57;95490.88;;;1.80;79.15
35778;BME280;21899;42.662;23.316;2023-02-12T09:55:27;95498.34;;;1.78;79.99
35778;BME280;21899;42.662;23.316;2023-02-12T09:57:53;95502.69;;;1.83;80.27
35778;BME280;21899;42.662;23.316;2023-02-12T10:00:28;95497.78;;;1.90;80.03
35778;BME280;21899;42.662;23.316;2023-02-12T10:02:56;95484.00;;;2.01;78.96
35778;BME280;21899;42.662;23.316;2023-02-12T10:05:31;95489.75;;;2.34;78.31
35778;BME280;21899;42.662;23.316;2023-02-12T10:10:52;95498.84;;;2.58;75.92
35778;BME280;21899;42.662;23.316;2023-02-12T10:13:30;95491.25;;;2.65;75.64
35778;BME280;21899;42.662;23.316;2023-02-12T10:16:11;95496.44;;;2.79;74.41
35778;BME280;21899;42.662;23.316;2023-02-12T10:18:48;95500.75;;;2.75;75.08
35778;BME280;21899;42.662;23.316;2023-02-12T10:21:21;95498.41;;;2.65;74.97
35778;BME280;21899;42.662;23.316;2023-02-12T10:23:59;95484.88;;;2.66;75.18
35778;BME280;21899;42.662;23.316;2023-02-12T10:26:30;95475.88;;;2.76;75.07
35778;BME280;21899;42.662;23.316;2023-02-12T10:29:18;95489.78;;;2.99;73.73
35778;BME280;21899;42.662;23.316;2023-02-12T10:31:49;95500.06;;;3.09;73.09
35778;BME280;21899;42.662;23.316;2023-02-12T10:34:21;95508.44;;;3.02;73.44
35778;BME280;21899;42.662;23.316;2023-02-12T10:36:48;95495.22;;;3.02;73.60
35778;BME280;21899;42.662;23.316;2023-02-12T10:39:21;95508.13;;;3.21;72.28
35778;BME280;21899;42.662;23.316;2023-02-12T10:42:01;95486.69;;;3.14;73.19
35778;BME280;21899;42.662;23.316;2023-02-12T10:44:30;95494.28;;;3.32;72.33
35778;BME280;21899;42.662;23.316;2023-02-12T10:46:55;95497.56;;;3.55;71.95
35778;BME280;21899;42.662;23.316;2023-02-12T10:49:21;95499.91;;;3.65;70.43
35778;BME280;21899;42.662;23.316;2023-02-12T10:59:51;95503.91;;;3.96;70.40
35778;BME280;21899;42.662;23.316;2023-02-12T11:02:29;95510.09;;;4.18;67.85
35778;BME280;21899;42.662;23.316;2023-02-12T11:04:56;95501.28;;;3.88;68.32
35778;BME280;21899;42.662;23.316;2023-02-12T11:07:22;95501.44;;;3.91;69.93
35778;BME280;21899;42.662;23.316;2023-02-12T11:09:50;95504.66;;;3.97;69.41
35778;BME280;21899;42.662;23.316;2023-02-12T11:15:03;95507.22;;;3.85;69.52
35778;BME280;21899;42.662;23.316;2023-02-12T11:17:39;95503.47;;;3.77;70.61
35778;BME280;21899;42.662;23.316;2023-02-12T11:22:58;95504.66;;;3.97;70.08
35778;BME280;21899;42.662;23.316;2023-02-12T11:25:27;95488.31;;;3.95;70.02
35778;BME280;21899;42.662;23.316;2023-02-12T11:30:24;95502.53;;;4.37;68.47
35778;BME280;21899;42.662;23.316;2023-02-12T11:32:50;95496.84;;;4.55;67.30
35778;BME280;21899;42.662;23.316;2023-02-12T11:35:21;95493.06;;;4.27;68.03
35778;BME280;21899;42.662;23.316;2023-02-12T11:37:58;95495.44;;;4.12;68.21
35778;BME280;21899;42.662;23.316;2023-02-12T11:40:30;95486.72;;;4.20;69.70
35778;BME280;21899;42.662;23.316;2023-02-12T11:43:04;95483.31;;;4.48;68.03
35778;BME280;21899;42.662;23.316;2023-02-12T11:45:53;95492.72;;;4.66;66.17
35778;BME280;21899;42.662;23.316;2023-02-12T11:48:32;95498.13;;;4.78;65.94
35778;BME280;21899;42.662;23.316;2023-02-12T11:51:02;95493.81;;;4.94;65.09
35778;BME280;21899;42.662;23.316;2023-02-12T11:53:36;95483.41;;;4.89;65.20
35778;BME280;21899;42.662;23.316;2023-02-12T11:56:08;95498.06;;;4.95;64.82
35778;BME280;21899;42.662;23.316;2023-02-12T11:58:35;95487.31;;;5.12;63.64
35778;BME280;21899;42.662;23.316;2023-02-12T12:04:02;95489.91;;;5.00;63.27
35778;BME280;21899;42.662;23.316;2023-02-12T12:10:12;95489.91;;;5.00;63.98
35778;BME280;21899;42.662;23.316;2023-02-12T12:12:45;95492.75;;;4.95;63.33
35778;BME280;21899;42.662;23.316;2023-02-12T12:15:21;95508.75;;;4.78;64.05
35778;BME280;21899;42.662;23.316;2023-02-12T12:18:28;95491.28;;;4.77;64.76
35778;BME280;21899;42.662;23.316;2023-02-12T12:24:08;95500.53;;;4.63;64.93
35778;BME280;21899;42.662;23.316;2023-02-12T12:26:36;95497.59;;;4.64;64.08
35778;BME280;21899;42.662;23.316;2023-02-12T12:29:12;95508.47;;;4.71;64.58
35778;BME280;21899;42.662;23.316;2023-02-12T12:31:43;95509.25;;;4.72;63.14
35778;BME280;21899;42.662;23.316;2023-02-12T12:34:28;95513.13;;;4.74;64.29
35778;BME280;21899;42.662;23.316;2023-02-12T12:40:20;95507.81;;;4.74;63.60
35778;BME280;21899;42.662;23.316;2023-02-12T13:07:38;95534.66;;;5.10;62.65
35778;BME280;21899;42.662;23.316;2023-02-12T13:10:16;95535.19;;;4.95;63.96
35778;BME280;21899;42.662;23.316;2023-02-12T13:18:22;95534.78;;;4.47;65.87
35778;BME280;21899;42.662;23.316;2023-02-12T13:26:56;95531.84;;;4.40;65.68
35778;BME280;21899;42.662;23.316;2023-02-12T13:29:27;95544.09;;;4.53;66.30
35778;BME280;21899;42.662;23.316;2023-02-12T13:32:04;95538.63;;;4.58;66.39
35778;BME280;21899;42.662;23.316;2023-02-12T13:34:35;95539.25;;;4.64;66.17
35778;BME280;21899;42.662;23.316;2023-02-12T13:37:03;95529.28;;;4.61;66.33
35778;BME280;21899;42.662;23.316;2023-02-12T13:39:39;95527.06;;;4.63;65.89
35778;BME280;21899;42.662;23.316;2023-02-12T13:48:04;95543.03;;;4.54;66.79
35778;BME280;21899;42.662;23.316;2023-02-12T13:50:50;95543.72;;;4.34;66.33
35778;BME280;21899;42.662;23.316;2023-02-12T13:53:24;95556.19;;;4.25;67.55
35778;BME280;21899;42.662;23.316;2023-02-12T13:56:14;95554.34;;;4.09;68.70
35778;BME280;21899;42.662;23.316;2023-02-12T13:58:50;95558.13;;;3.99;69.38
35778;BME280;21899;42.662;23.316;2023-02-12T14:07:00;95566.84;;;3.91;70.47
35778;BME280;21899;42.662;23.316;2023-02-12T14:09:35;95567.91;;;3.98;70.11
35778;BME280;21899;42.662;23.316;2023-02-12T14:12:08;95577.72;;;4.07;69.95
35778;BME280;21899;42.662;23.316;2023-02-12T14:14:40;95581.97;;;3.99;70.15
35778;BME280;21899;42.662;23.316;2023-02-12T14:27:46;95594.75;;;3.80;71.12
35778;BME280;21899;42.662;23.316;2023-02-12T14:35:36;95605.03;;;3.73;71.49
35778;BME280;21899;42.662;23.316;2023-02-12T14:41:22;95601.75;;;3.67;71.62
35778;BME280;21899;42.662;23.316;2023-02-12T14:46:46;95620.09;;;3.47;73.15
35778;BME280;21899;42.662;23.316;2023-02-12T14:59:40;95626.13;;;3.22;73.99
35778;BME280;21899;42.662;23.316;2023-02-12T15:02:21;95635.78;;;3.26;74.42
35778;BME280;21899;42.662;23.316;2023-02-12T15:04:49;95642.16;;;3.25;74.04
35778;BME280;21899;42.662;23.316;2023-02-12T15:07:21;95645.88;;;3.24;74.38
35778;BME280;21899;42.662;23.316;2023-02-12T15:09:57;95645.13;;;3.24;74.61
35778;BME280;21899;42.662;23.316;2023-02-12T15:12:37;95642.91;;;3.26;74.12
35778;BME280;21899;42.662;23.316;2023-02-12T15:18:05;95664.88;;;3.26;74.70
35778;BME280;21899;42.662;23.316;2023-02-12T15:20:43;95673.13;;;3.25;75.00
35778;BME280;21899;42.662;23.316;2023-02-12T15:23:43;95679.81;;;3.22;75.91
35778;BME280;21899;42.662;23.316;2023-02-12T15:26:18;95670.56;;;3.11;75.75
35778;BME280;21899;42.662;23.316;2023-02-12T15:28:47;95686.47;;;3.20;76.46
35778;BME280;21899;42.662;23.316;2023-02-12T15:31:19;95692.88;;;3.27;76.20
35778;BME280;21899;42.662;23.316;2023-02-12T15:33:48;95703.03;;;3.34;75.88
35778;BME280;21899;42.662;23.316;2023-02-12T15:36:17;95705.22;;;3.32;76.23
35778;BME280;21899;42.662;23.316;2023-02-12T15:38:47;95712.38;;;3.31;75.76
35778;BME280;21899;42.662;23.316;2023-02-12T15:41:26;95714.03;;;3.27;76.60
35778;BME280;21899;42.662;23.316;2023-02-12T15:43:52;95714.03;;;3.19;76.58
35778;BME280;21899;42.662;23.316;2023-02-12T15:46:19;95711.53;;;3.14;77.14
35778;BME280;21899;42.662;23.316;2023-02-12T15:48:44;95717.44;;;3.11;77.61
35778;BME280;21899;42.662;23.316;2023-02-12T15:51:39;95721.75;;;3.07;78.01
35778;BME280;21899;42.662;23.316;2023-02-12T15:54:07;95719.09;;;3.07;78.27